createdAt,value
2022-08-02T00:00:19.115Z,1013.14
2022-08-02T00:01:19.152Z,1013.10
2022-08-02T00:02:19.103Z,1013.11
2022-08-02T00:03:19.073Z,1013.11
2022-08-02T00:04:19.072Z,1013.12
2022-08-02T00:05:19.048Z,1013.16
2022-08-02T00:06:19.034Z,1013.13
2022-08-02T00:07:19.037Z,1013.17
2022-08-02T00:08:19.019Z,1013.12
2022-08-02T00:09:19.013Z,1013.13
2022-08-02T00:10:18.990Z,1013.14
2022-08-02T00:11:18.975Z,1013.13
2022-08-02T00:12:18.968Z,1013.12
2022-08-02T00:13:18.956Z,1013.16
2022-08-02T00:14:18.961Z,1013.11
2022-08-02T00:15:18.940Z,1013.17
2022-08-02T00:16:18.928Z,1013.18
2022-08-02T00:17:18.910Z,1013.18
2022-08-02T00:18:18.907Z,1013.14
2022-08-02T00:19:18.912Z,1013.14
2022-08-02T00:20:18.877Z,1013.15
2022-08-02T00:21:18.874Z,1013.13
2022-08-02T00:22:18.855Z,1013.15
2022-08-02T00:23:18.841Z,1013.14
2022-08-02T00:24:30.155Z,1013.14
2022-08-02T00:25:19.835Z,1013.14
2022-08-02T00:26:18.818Z,1013.13
2022-08-02T00:27:18.803Z,1013.14
2022-08-02T00:28:26.938Z,1013.12
2022-08-02T00:29:19.773Z,1013.14
2022-08-02T00:30:18.779Z,1013.16
2022-08-02T00:31:18.765Z,1013.14
2022-08-02T00:32:18.742Z,1013.19
2022-08-02T00:33:18.737Z,1013.20
2022-08-02T00:34:30.254Z,1013.22
2022-08-02T00:35:19.755Z,1013.24
2022-08-02T00:36:18.713Z,1013.20
2022-08-02T00:37:18.692Z,1013.24
2022-08-02T00:38:18.697Z,1013.23
2022-08-02T00:39:33.666Z,1013.22
2022-08-02T00:40:19.679Z,1013.18
2022-08-02T00:41:18.663Z,1013.22
2022-08-02T00:42:18.632Z,1013.16
2022-08-02T00:43:18.627Z,1013.16
2022-08-02T00:44:18.608Z,1013.13
2022-08-02T00:45:18.614Z,1013.12
2022-08-02T00:46:18.584Z,1013.14
2022-08-02T00:47:19.509Z,1013.14
2022-08-02T00:48:18.570Z,1013.12
2022-08-02T00:49:18.591Z,1013.14
2022-08-02T00:50:18.540Z,1013.14
2022-08-02T00:51:18.554Z,1013.15
2022-08-02T00:52:18.524Z,1013.11
2022-08-02T00:53:18.512Z,1013.10
2022-08-02T00:54:18.496Z,1013.08
2022-08-02T00:55:18.756Z,1013.07
2022-08-02T00:56:19.486Z,1013.10
2022-08-02T00:57:18.468Z,1013.09
2022-08-02T00:58:18.457Z,1013.06
2022-08-02T00:59:18.527Z,1013.03
2022-08-02T01:00:18.428Z,1013.05
2022-08-02T01:01:18.467Z,1013.04
2022-08-02T01:02:18.542Z,1013.06
2022-08-02T01:03:18.393Z,1013.07
2022-08-02T01:04:18.382Z,1013.03
2022-08-02T01:05:19.379Z,1013.04
2022-08-02T01:06:18.377Z,1013.04
2022-08-02T01:07:18.348Z,1013.13
2022-08-02T01:08:18.339Z,1013.11
2022-08-02T01:09:18.332Z,1013.08
2022-08-02T01:10:18.327Z,1013.09
2022-08-02T01:11:18.317Z,1013.08
2022-08-02T01:12:18.300Z,1013.07
2022-08-02T01:13:18.286Z,1013.07
2022-08-02T01:14:18.269Z,1013.07
2022-08-02T01:15:18.265Z,1013.10
2022-08-02T01:16:18.266Z,1013.09
2022-08-02T01:17:18.233Z,1013.09
2022-08-02T01:18:18.231Z,1013.11
2022-08-02T01:19:18.211Z,1013.08
2022-08-02T01:20:18.211Z,1013.08
2022-08-02T01:21:18.218Z,1013.03
2022-08-02T01:22:18.186Z,1013.02
2022-08-02T01:23:18.812Z,1013.03
2022-08-02T01:24:18.163Z,1013.01
2022-08-02T01:25:18.150Z,1013.02
2022-08-02T01:26:18.156Z,1012.99
2022-08-02T01:27:18.123Z,1013.00
2022-08-02T01:28:18.115Z,1013.01
2022-08-02T01:29:18.096Z,1013.00
2022-08-02T01:30:18.094Z,1013.02
2022-08-02T01:31:18.095Z,1012.98
2022-08-02T01:32:18.077Z,1012.98
2022-08-02T01:33:18.066Z,1012.98
2022-08-02T01:34:18.066Z,1012.98
2022-08-02T01:35:18.026Z,1012.97
2022-08-02T01:36:18.041Z,1012.97
2022-08-02T01:37:18.011Z,1012.92
2022-08-02T01:38:17.994Z,1012.96
2022-08-02T01:39:26.969Z,1012.94
2022-08-02T01:40:18.977Z,1012.93
2022-08-02T01:41:17.982Z,1012.96
2022-08-02T01:42:17.954Z,1012.96
2022-08-02T01:43:17.962Z,1013.00
2022-08-02T01:44:17.944Z,1013.00
2022-08-02T01:45:18.912Z,1013.02
2022-08-02T01:46:17.923Z,1013.01
2022-08-02T01:47:17.893Z,1013.01
2022-08-02T01:48:17.880Z,1013.03
2022-08-02T01:49:17.954Z,1013.01
2022-08-02T01:50:17.877Z,1013.03
2022-08-02T01:51:17.866Z,1012.99
2022-08-02T01:52:17.842Z,1012.98
2022-08-02T01:53:17.825Z,1013.01
2022-08-02T01:54:17.819Z,1013.02
2022-08-02T01:55:18.668Z,1013.05
2022-08-02T01:56:17.810Z,1013.02
2022-08-02T01:57:17.777Z,1012.98
2022-08-02T01:58:17.775Z,1012.98
2022-08-02T01:59:17.756Z,1012.98
2022-08-02T02:00:17.747Z,1012.93
2022-08-02T02:01:18.659Z,1012.87
2022-08-02T02:02:17.737Z,1012.88
2022-08-02T02:03:17.718Z,1012.86
2022-08-02T02:04:17.706Z,1012.88
2022-08-02T02:05:17.690Z,1012.85
2022-08-02T02:06:17.707Z,1012.80
2022-08-02T02:07:17.675Z,1012.79
2022-08-02T02:08:27.317Z,1012.77
2022-08-02T02:09:18.642Z,1012.82
2022-08-02T02:10:17.636Z,1012.81
2022-08-02T02:12:05.799Z,1012.83
2022-08-02T02:12:18.924Z,1012.82
2022-08-02T02:13:17.612Z,1012.81
2022-08-02T02:14:17.597Z,1012.81
2022-08-02T02:15:17.588Z,1012.75
2022-08-02T02:16:17.590Z,1012.71
2022-08-02T02:18:11.982Z,1012.73
2022-08-02T02:18:18.549Z,1012.72
2022-08-02T02:19:20.888Z,1012.73
2022-08-02T02:20:17.526Z,1012.66
2022-08-02T02:21:17.523Z,1012.71
2022-08-02T02:22:17.506Z,1012.68
2022-08-02T02:23:17.493Z,1012.69
2022-08-02T02:24:18.521Z,1012.67
2022-08-02T02:25:17.495Z,1012.67
2022-08-02T02:26:17.538Z,1012.67
2022-08-02T02:27:18.442Z,1012.68
2022-08-02T02:28:17.439Z,1012.66
2022-08-02T02:29:17.428Z,1012.68
2022-08-02T02:30:17.435Z,1012.67
2022-08-02T02:31:17.397Z,1012.67
2022-08-02T02:32:17.394Z,1012.66
2022-08-02T02:33:17.376Z,1012.67
2022-08-02T02:34:17.367Z,1012.66
2022-08-02T02:35:17.356Z,1012.67
2022-08-02T02:36:17.362Z,1012.67
2022-08-02T02:37:17.339Z,1012.67
2022-08-02T02:38:17.320Z,1012.67
2022-08-02T02:39:17.318Z,1012.67
2022-08-02T02:40:17.309Z,1012.65
2022-08-02T02:41:17.307Z,1012.65
2022-08-02T02:42:17.282Z,1012.61
2022-08-02T02:43:17.269Z,1012.60
2022-08-02T02:44:17.264Z,1012.59
2022-08-02T02:45:17.241Z,1012.59
2022-08-02T02:46:17.249Z,1012.59
2022-08-02T02:47:17.222Z,1012.58
2022-08-02T02:48:17.205Z,1012.64
2022-08-02T02:49:17.219Z,1012.63
2022-08-02T02:50:17.181Z,1012.65
2022-08-02T02:51:17.183Z,1012.70
2022-08-02T02:52:17.157Z,1012.70
2022-08-02T02:53:17.146Z,1012.68
2022-08-02T02:54:30.975Z,1012.65
2022-08-02T02:55:18.129Z,1012.67
2022-08-02T02:56:17.132Z,1012.70
2022-08-02T02:57:17.102Z,1012.72
2022-08-02T02:58:17.092Z,1012.73
2022-08-02T02:59:17.079Z,1012.74
2022-08-02T03:00:17.079Z,1012.74
2022-08-02T03:01:17.127Z,1012.74
2022-08-02T03:02:17.061Z,1012.73
2022-08-02T03:03:17.035Z,1012.74
2022-08-02T03:04:17.025Z,1012.72
2022-08-02T03:05:17.022Z,1012.70
2022-08-02T03:06:17.020Z,1012.71
2022-08-02T03:07:16.990Z,1012.69
2022-08-02T03:08:16.992Z,1012.67
2022-08-02T03:09:16.976Z,1012.67
2022-08-02T03:10:16.966Z,1012.67
2022-08-02T03:11:16.971Z,1012.63
2022-08-02T03:12:20.103Z,1012.62
2022-08-02T03:13:16.925Z,1012.60
2022-08-02T03:14:16.915Z,1012.62
2022-08-02T03:15:16.904Z,1012.58
2022-08-02T03:16:16.908Z,1012.60
2022-08-02T03:17:16.888Z,1012.61
2022-08-02T03:18:16.872Z,1012.61
2022-08-02T03:19:16.876Z,1012.59
2022-08-02T03:20:16.884Z,1012.57
2022-08-02T03:21:16.853Z,1012.57
2022-08-02T03:22:16.835Z,1012.56
2022-08-02T03:23:16.817Z,1012.55
2022-08-02T03:24:16.811Z,1012.58
2022-08-02T03:25:17.792Z,1012.55
2022-08-02T03:26:16.795Z,1012.58
2022-08-02T03:27:16.776Z,1012.49
2022-08-02T03:28:16.765Z,1012.52
2022-08-02T03:29:16.754Z,1012.55
2022-08-02T03:30:16.745Z,1012.51
2022-08-02T03:31:16.739Z,1012.53
2022-08-02T03:32:16.721Z,1012.58
2022-08-02T03:33:16.702Z,1012.54
2022-08-02T03:34:16.699Z,1012.58
2022-08-02T03:35:22.848Z,1012.58
2022-08-02T03:36:17.686Z,1012.59
2022-08-02T03:37:16.666Z,1012.59
2022-08-02T03:38:16.659Z,1012.57
2022-08-02T03:39:16.643Z,1012.54
2022-08-02T03:40:16.628Z,1012.52
2022-08-02T03:41:16.635Z,1012.50
2022-08-02T03:42:16.606Z,1012.47
2022-08-02T03:43:16.593Z,1012.51
2022-08-02T03:44:16.590Z,1012.54
2022-08-02T03:45:16.580Z,1012.57
2022-08-02T03:46:16.581Z,1012.61
2022-08-02T03:47:16.550Z,1012.62
2022-08-02T03:48:30.541Z,1012.59
2022-08-02T03:49:17.562Z,1012.60
2022-08-02T03:50:16.541Z,1012.60
2022-08-02T03:51:16.526Z,1012.56
2022-08-02T03:52:16.501Z,1012.56
2022-08-02T03:53:19.914Z,1012.59
2022-08-02T03:54:16.482Z,1012.57
2022-08-02T03:55:16.462Z,1012.53
2022-08-02T03:56:16.463Z,1012.53
2022-08-02T03:57:16.447Z,1012.55
2022-08-02T03:58:16.427Z,1012.49
2022-08-02T03:59:16.426Z,1012.50
2022-08-02T04:00:16.404Z,1012.47
2022-08-02T04:01:16.640Z,1012.50
2022-08-02T04:02:16.390Z,1012.49
2022-08-02T04:03:19.837Z,1012.47
2022-08-02T04:04:16.364Z,1012.50
2022-08-02T04:05:16.345Z,1012.50
2022-08-02T04:06:16.352Z,1012.48
2022-08-02T04:08:02.435Z,1012.52
2022-08-02T04:08:37.100Z,1012.50
2022-08-02T04:09:17.299Z,1012.51
2022-08-02T04:10:16.296Z,1012.52
2022-08-02T04:11:16.301Z,1012.48
2022-08-02T04:12:16.275Z,1012.52
2022-08-02T04:13:16.256Z,1012.49
2022-08-02T04:14:16.243Z,1012.52
2022-08-02T04:15:16.237Z,1012.52
2022-08-02T04:16:16.242Z,1012.54
2022-08-02T04:17:16.209Z,1012.55
2022-08-02T04:18:16.196Z,1012.56
2022-08-02T04:19:16.194Z,1012.55
2022-08-02T04:20:16.176Z,1012.58
2022-08-02T04:21:16.188Z,1012.58
2022-08-02T04:22:16.153Z,1012.59
2022-08-02T04:23:16.142Z,1012.64
2022-08-02T04:24:18.628Z,1012.66
2022-08-02T04:25:17.537Z,1012.67
2022-08-02T04:26:16.136Z,1012.64
2022-08-02T04:27:49.278Z,1012.65
2022-08-02T04:28:18.578Z,1012.64
2022-08-02T04:29:16.082Z,1012.60
2022-08-02T04:30:16.061Z,1012.60
2022-08-02T04:31:16.077Z,1012.61
2022-08-02T04:32:16.048Z,1012.59
2022-08-02T04:33:16.034Z,1012.60
2022-08-02T04:34:16.015Z,1012.59
2022-08-02T04:35:20.211Z,1012.58
2022-08-02T04:36:16.000Z,1012.64
2022-08-02T04:37:17.005Z,1012.67
2022-08-02T04:38:16.073Z,1012.69
2022-08-02T04:39:15.967Z,1012.68
2022-08-02T04:40:15.948Z,1012.69
2022-08-02T04:41:15.937Z,1012.64
2022-08-02T04:42:15.942Z,1012.69
2022-08-02T04:43:15.926Z,1012.70
2022-08-02T04:44:15.901Z,1012.71
2022-08-02T04:45:16.567Z,1012.75
2022-08-02T04:46:15.885Z,1012.77
2022-08-02T04:47:15.891Z,1012.81
2022-08-02T04:48:15.856Z,1012.80
2022-08-02T04:49:15.882Z,1012.80
2022-08-02T04:50:15.838Z,1012.80
2022-08-02T04:51:15.831Z,1012.78
2022-08-02T04:52:15.830Z,1012.77
2022-08-02T04:53:15.817Z,1012.76
2022-08-02T04:54:15.789Z,1012.72
2022-08-02T04:55:15.778Z,1012.73
2022-08-02T04:56:15.771Z,1012.71
2022-08-02T04:57:15.774Z,1012.73
2022-08-02T04:58:39.381Z,1012.69
2022-08-02T04:59:16.747Z,1012.68
2022-08-02T05:00:15.834Z,1012.67
2022-08-02T05:01:15.783Z,1012.66
2022-08-02T05:02:15.716Z,1012.67
2022-08-02T05:03:15.692Z,1012.68
2022-08-02T05:04:15.672Z,1012.70
2022-08-02T05:05:15.671Z,1012.74
2022-08-02T05:06:18.763Z,1012.77
2022-08-02T05:07:15.656Z,1012.74
2022-08-02T05:08:15.633Z,1012.73
2022-08-02T05:09:15.622Z,1012.71
2022-08-02T05:10:15.610Z,1012.70
2022-08-02T05:11:15.595Z,1012.72
2022-08-02T05:12:15.599Z,1012.72
2022-08-02T05:13:15.579Z,1012.74
2022-08-02T05:14:15.559Z,1012.73
2022-08-02T05:15:15.548Z,1012.75
2022-08-02T05:16:15.537Z,1012.76
2022-08-02T05:17:15.547Z,1012.81
2022-08-02T05:18:15.520Z,1012.79
2022-08-02T05:19:15.511Z,1012.82
2022-08-02T05:20:15.492Z,1012.84
2022-08-02T05:21:15.521Z,1012.91
2022-08-02T05:22:15.481Z,1012.83
2022-08-02T05:23:15.466Z,1012.81
2022-08-02T05:24:15.452Z,1012.85
2022-08-02T05:25:15.442Z,1012.88
2022-08-02T05:26:15.430Z,1012.86
2022-08-02T05:27:17.154Z,1012.90
2022-08-02T05:28:16.398Z,1012.90
2022-08-02T05:29:15.391Z,1012.88
2022-08-02T05:30:15.384Z,1012.86
2022-08-02T05:31:15.374Z,1012.84
2022-08-02T05:32:15.370Z,1012.77
2022-08-02T05:33:15.345Z,1012.78
2022-08-02T05:34:15.331Z,1012.80
2022-08-02T05:35:15.330Z,1012.83
2022-08-02T05:36:15.836Z,1012.84
2022-08-02T05:37:15.313Z,1012.88
2022-08-02T05:38:15.297Z,1012.86
2022-08-02T05:39:19.091Z,1012.83
2022-08-02T05:40:15.264Z,1012.87
2022-08-02T05:41:15.265Z,1012.90
2022-08-02T05:42:15.284Z,1012.85
2022-08-02T05:43:15.240Z,1012.84
2022-08-02T05:44:15.226Z,1012.85
2022-08-02T05:45:15.210Z,1012.85
2022-08-02T05:46:15.208Z,1012.83
2022-08-02T05:47:15.200Z,1012.83
2022-08-02T05:48:15.177Z,1012.84
2022-08-02T05:49:15.284Z,1012.81
2022-08-02T05:50:15.152Z,1012.82
2022-08-02T05:51:15.141Z,1012.80
2022-08-02T05:52:15.158Z,1012.82
2022-08-02T05:53:15.119Z,1012.83
2022-08-02T05:54:15.114Z,1012.83
2022-08-02T05:55:15.103Z,1012.82
2022-08-02T05:56:15.090Z,1012.84
2022-08-02T05:57:15.086Z,1012.84
2022-08-02T05:58:15.068Z,1012.81
2022-08-02T05:59:15.052Z,1012.85
2022-08-02T06:00:15.044Z,1012.83
2022-08-02T06:01:15.116Z,1012.90
2022-08-02T06:02:15.638Z,1012.91
2022-08-02T06:03:16.012Z,1012.94
2022-08-02T06:04:14.997Z,1012.92
2022-08-02T06:05:14.987Z,1012.88
2022-08-02T06:06:14.976Z,1012.92
2022-08-02T06:07:14.973Z,1012.81
2022-08-02T06:08:14.944Z,1012.88
2022-08-02T06:09:14.934Z,1012.89
2022-08-02T06:10:14.928Z,1012.86
2022-08-02T06:11:14.911Z,1012.83
2022-08-02T06:12:15.207Z,1012.82
2022-08-02T06:13:14.918Z,1012.81
2022-08-02T06:14:14.881Z,1012.84
2022-08-02T06:15:14.869Z,1012.81
2022-08-02T06:16:15.070Z,1012.79
2022-08-02T06:17:14.859Z,1012.84
2022-08-02T06:18:14.834Z,1012.81
2022-08-02T06:19:14.829Z,1012.82
2022-08-02T06:20:14.810Z,1012.81
2022-08-02T06:22:31.402Z,1012.79
2022-08-02T06:22:33.730Z,1012.83
2022-08-02T06:23:15.778Z,1012.83
2022-08-02T06:24:14.772Z,1012.81
2022-08-02T06:25:51.081Z,1012.83
2022-08-02T06:26:15.743Z,1012.80
2022-08-02T06:27:14.747Z,1012.78
2022-08-02T06:28:14.728Z,1012.77
2022-08-02T06:29:14.709Z,1012.75
2022-08-02T06:30:14.706Z,1012.73
2022-08-02T06:31:14.687Z,1012.69
2022-08-02T06:32:15.269Z,1012.70
2022-08-02T06:33:14.692Z,1012.72
2022-08-02T06:34:14.653Z,1012.74
2022-08-02T06:35:14.645Z,1012.74
2022-08-02T06:36:14.639Z,1012.73
2022-08-02T06:37:14.640Z,1012.73
2022-08-02T06:38:14.610Z,1012.73
2022-08-02T06:39:14.598Z,1012.71
2022-08-02T06:40:14.589Z,1012.71
2022-08-02T06:41:14.583Z,1012.74
2022-08-02T06:42:14.860Z,1012.75
2022-08-02T06:43:14.552Z,1012.75
2022-08-02T06:44:44.843Z,1012.74
2022-08-02T06:45:15.530Z,1012.78
2022-08-02T06:47:09.841Z,1012.73
2022-08-02T06:47:15.524Z,1012.72
2022-08-02T06:48:14.512Z,1012.68
2022-08-02T06:49:14.611Z,1012.70
2022-08-02T06:50:14.481Z,1012.70
2022-08-02T06:51:14.471Z,1012.67
2022-08-02T06:52:18.714Z,1012.68
2022-08-02T06:53:14.448Z,1012.71
2022-08-02T06:54:14.437Z,1012.68
2022-08-02T06:55:14.423Z,1012.69
2022-08-02T06:56:14.406Z,1012.64
2022-08-02T06:57:14.419Z,1012.64
2022-08-02T06:58:14.402Z,1012.69
2022-08-02T06:59:14.479Z,1012.66
2022-08-02T07:00:14.361Z,1012.65
2022-08-02T07:01:14.426Z,1012.70
2022-08-02T07:02:14.604Z,1012.71
2022-08-02T07:03:14.327Z,1012.72
2022-08-02T07:04:16.452Z,1012.66
2022-08-02T07:05:14.305Z,1012.68
2022-08-02T07:06:14.307Z,1012.67
2022-08-02T07:07:14.293Z,1012.66
2022-08-02T07:08:14.269Z,1012.70
2022-08-02T07:09:22.199Z,1012.73
2022-08-02T07:10:15.253Z,1012.73
2022-08-02T07:11:14.239Z,1012.79
2022-08-02T07:12:14.607Z,1012.82
2022-08-02T07:13:14.214Z,1012.77
2022-08-02T07:14:14.354Z,1012.84
2022-08-02T07:15:14.205Z,1012.85
2022-08-02T07:16:14.180Z,1012.81
2022-08-02T07:17:14.184Z,1012.77
2022-08-02T07:18:14.165Z,1012.77
2022-08-02T07:19:14.148Z,1012.70
2022-08-02T07:20:14.141Z,1012.66
2022-08-02T07:21:14.135Z,1012.63
2022-08-02T07:22:14.312Z,1012.63
2022-08-02T07:23:14.110Z,1012.58
2022-08-02T07:24:14.091Z,1012.62
2022-08-02T07:25:14.094Z,1012.63
2022-08-02T07:26:14.068Z,1012.65
2022-08-02T07:27:14.100Z,1012.67
2022-08-02T07:28:22.128Z,1012.63
2022-08-02T07:29:15.035Z,1012.63
2022-08-02T07:30:14.030Z,1012.65
2022-08-02T07:31:14.025Z,1012.69
2022-08-02T07:32:14.468Z,1012.65
2022-08-02T07:33:37.724Z,1012.62
2022-08-02T07:34:14.977Z,1012.64
2022-08-02T07:35:14.558Z,1012.68
2022-08-02T07:36:17.024Z,1012.68
2022-08-02T07:37:35.992Z,1012.68
2022-08-02T07:38:14.938Z,1012.68
2022-08-02T07:39:13.921Z,1012.66
2022-08-02T07:40:15.051Z,1012.70
2022-08-02T07:41:14.910Z,1012.72
2022-08-02T07:42:14.286Z,1012.70
2022-08-02T07:43:13.887Z,1012.67
2022-08-02T07:44:13.873Z,1012.72
2022-08-02T07:45:13.880Z,1012.67
2022-08-02T07:46:13.848Z,1012.62
2022-08-02T07:47:14.404Z,1012.69
2022-08-02T07:48:13.848Z,1012.68
2022-08-02T07:49:13.924Z,1012.72
2022-08-02T07:50:13.812Z,1012.68
2022-08-02T07:51:17.216Z,1012.63
2022-08-02T07:52:14.289Z,1012.65
2022-08-02T07:53:13.768Z,1012.62
2022-08-02T07:54:16.832Z,1012.63
2022-08-02T07:55:13.751Z,1012.60
2022-08-02T07:56:13.732Z,1012.59
2022-08-02T07:57:13.738Z,1012.58
2022-08-02T07:58:13.916Z,1012.56
2022-08-02T07:59:13.889Z,1012.54
2022-08-02T08:00:13.689Z,1012.56
2022-08-02T08:01:13.705Z,1012.57
2022-08-02T08:02:14.081Z,1012.57
2022-08-02T08:03:13.656Z,1012.56
2022-08-02T08:04:13.644Z,1012.57
2022-08-02T08:05:13.641Z,1012.54
2022-08-02T08:06:13.621Z,1012.53
2022-08-02T08:07:13.637Z,1012.51
2022-08-02T08:08:17.399Z,1012.51
2022-08-02T08:09:13.596Z,1012.49
2022-08-02T08:10:13.583Z,1012.52
2022-08-02T08:11:13.582Z,1012.49
2022-08-02T08:12:14.129Z,1012.53
2022-08-02T08:13:13.544Z,1012.53
2022-08-02T08:14:16.864Z,1012.53
2022-08-02T08:15:13.530Z,1012.51
2022-08-02T08:16:13.520Z,1012.51
2022-08-02T08:17:13.512Z,1012.53
2022-08-02T08:18:13.492Z,1012.49
2022-08-02T08:19:13.621Z,1012.47
2022-08-02T08:20:15.890Z,1012.43
2022-08-02T08:21:13.458Z,1012.44
2022-08-02T08:22:14.063Z,1012.43
2022-08-02T08:23:13.434Z,1012.39
2022-08-02T08:24:13.421Z,1012.39
2022-08-02T08:25:13.413Z,1012.46
2022-08-02T08:26:15.793Z,1012.48
2022-08-02T08:27:13.432Z,1012.46
2022-08-02T08:28:13.387Z,1012.47
2022-08-02T08:29:13.364Z,1012.40
2022-08-02T08:30:13.361Z,1012.40
2022-08-02T08:31:13.351Z,1012.41
2022-08-02T08:32:17.467Z,1012.36
2022-08-02T08:33:14.321Z,1012.35
2022-08-02T08:34:13.309Z,1012.31
2022-08-02T08:35:13.305Z,1012.40
2022-08-02T08:36:13.294Z,1012.37
2022-08-02T08:37:18.116Z,1012.34
2022-08-02T08:38:14.276Z,1012.33
2022-08-02T08:39:13.249Z,1012.32
2022-08-02T08:40:13.247Z,1012.34
2022-08-02T08:41:14.228Z,1012.40
2022-08-02T08:42:13.541Z,1012.44
2022-08-02T08:43:13.228Z,1012.41
2022-08-02T08:44:13.203Z,1012.36
2022-08-02T08:45:13.182Z,1012.32
2022-08-02T08:46:13.181Z,1012.33
2022-08-02T08:47:13.161Z,1012.30
2022-08-02T08:48:13.164Z,1012.38
2022-08-02T08:49:13.203Z,1012.33
2022-08-02T08:50:20.068Z,1012.25
2022-08-02T08:51:14.122Z,1012.25
2022-08-02T08:52:13.572Z,1012.32
2022-08-02T08:53:13.825Z,1012.30
2022-08-02T08:54:13.091Z,1012.35
2022-08-02T08:55:13.071Z,1012.33
2022-08-02T08:56:16.354Z,1012.28
2022-08-02T08:57:13.720Z,1012.29
2022-08-02T08:58:13.524Z,1012.25
2022-08-02T08:59:13.027Z,1012.26
2022-08-02T09:00:13.034Z,1012.24
2022-08-02T09:01:13.139Z,1012.42
2022-08-02T09:02:17.860Z,1012.31
2022-08-02T09:03:13.997Z,1012.35
2022-08-02T09:04:12.981Z,1012.40
2022-08-02T09:05:12.969Z,1012.36
2022-08-02T09:06:12.953Z,1012.35
2022-08-02T09:07:12.949Z,1012.27
2022-08-02T09:08:16.794Z,1012.40
2022-08-02T09:09:12.926Z,1012.44
2022-08-02T09:10:12.917Z,1012.39
2022-08-02T09:11:12.903Z,1012.40
2022-08-02T09:12:13.246Z,1012.37
2022-08-02T09:13:37.591Z,1012.37
2022-08-02T09:14:13.863Z,1012.35
2022-08-02T09:15:15.947Z,1012.34
2022-08-02T09:16:14.546Z,1012.36
2022-08-02T09:17:12.831Z,1012.34
2022-08-02T09:18:12.838Z,1012.32
2022-08-02T09:19:12.817Z,1012.32
2022-08-02T09:20:12.812Z,1012.24
2022-08-02T09:21:12.787Z,1012.32
2022-08-02T09:22:13.261Z,1012.26
2022-08-02T09:23:12.782Z,1012.25
2022-08-02T09:24:12.760Z,1012.19
2022-08-02T09:25:12.746Z,1012.14
2022-08-02T09:26:12.737Z,1012.09
2022-08-02T09:27:12.733Z,1012.06
2022-08-02T09:28:12.738Z,1012.02
2022-08-02T09:29:12.712Z,1011.90
2022-08-02T09:30:13.981Z,1012.13
2022-08-02T09:31:12.691Z,1012.19
2022-08-02T09:32:13.010Z,1012.14
2022-08-02T09:33:12.687Z,1012.05
2022-08-02T09:34:12.660Z,1012.23
2022-08-02T09:35:12.648Z,1012.06
2022-08-02T09:36:12.652Z,1012.01
2022-08-02T09:37:12.627Z,1012.15
2022-08-02T09:38:12.632Z,1012.18
2022-08-02T09:39:12.605Z,1012.13
2022-08-02T09:40:12.607Z,1012.18
2022-08-02T09:41:12.590Z,1012.12
2022-08-02T09:42:12.868Z,1012.14
2022-08-02T09:43:12.571Z,1012.10
2022-08-02T09:44:15.941Z,1012.05
2022-08-02T09:45:12.547Z,1012.11
2022-08-02T09:46:12.524Z,1011.99
2022-08-02T09:47:12.520Z,1012.06
2022-08-02T09:48:12.526Z,1012.21
2022-08-02T09:49:12.579Z,1012.11
2022-08-02T09:50:15.061Z,1012.15
2022-08-02T09:51:12.474Z,1012.16
2022-08-02T09:52:13.012Z,1012.11
2022-08-02T09:53:12.472Z,1012.11
2022-08-02T09:54:12.449Z,1012.07
2022-08-02T09:55:12.439Z,1011.96
2022-08-02T09:56:30.251Z,1011.87
2022-08-02T09:57:13.408Z,1011.87
2022-08-02T09:58:12.414Z,1011.87
2022-08-02T09:59:12.394Z,1011.94
2022-08-02T10:00:16.262Z,1011.94
2022-08-02T10:01:13.438Z,1012.15
2022-08-02T10:02:17.050Z,1011.94
2022-08-02T10:03:22.415Z,1012.01
2022-08-02T10:04:20.559Z,1012.09
2022-08-02T10:05:13.323Z,1012.19
2022-08-02T10:06:12.314Z,1012.17
2022-08-02T10:07:12.312Z,1012.16
2022-08-02T10:08:12.311Z,1012.10
2022-08-02T10:09:12.290Z,1012.18
2022-08-02T10:10:12.282Z,1012.18
2022-08-02T10:11:12.268Z,1012.22
2022-08-02T10:12:12.613Z,1012.23
2022-08-02T10:13:12.259Z,1012.22
2022-08-02T10:14:13.230Z,1012.14
2022-08-02T10:15:12.219Z,1012.24
2022-08-02T10:16:12.210Z,1012.26
2022-08-02T10:17:12.206Z,1012.19
2022-08-02T10:18:29.048Z,1012.17
2022-08-02T10:19:13.176Z,1011.92
2022-08-02T10:20:12.176Z,1011.85
2022-08-02T10:21:12.165Z,1011.91
2022-08-02T10:22:12.439Z,1011.82
2022-08-02T10:23:12.167Z,1011.78
2022-08-02T10:24:12.135Z,1011.84
2022-08-02T10:25:12.123Z,1011.72
2022-08-02T10:26:12.106Z,1011.67
2022-08-02T10:27:12.157Z,1011.67
2022-08-02T10:28:16.485Z,1011.71
2022-08-02T10:29:12.085Z,1011.84
2022-08-02T10:30:12.070Z,1011.69
2022-08-02T10:31:12.056Z,1011.72
2022-08-02T10:32:12.340Z,1011.65
2022-08-02T10:33:12.047Z,1011.79
2022-08-02T10:34:12.022Z,1011.80
2022-08-02T10:35:19.564Z,1011.76
2022-08-02T10:36:13.007Z,1011.74
2022-08-02T10:37:11.997Z,1011.76
2022-08-02T10:38:12.002Z,1011.73
2022-08-02T10:39:11.968Z,1011.73
2022-08-02T10:40:12.021Z,1011.71
2022-08-02T10:41:11.954Z,1011.67
2022-08-02T10:42:12.479Z,1011.71
2022-08-02T10:43:11.952Z,1011.70
2022-08-02T10:44:24.838Z,1011.75
2022-08-02T10:45:12.912Z,1011.71
2022-08-02T10:46:11.901Z,1011.70
2022-08-02T10:47:11.885Z,1011.55
2022-08-02T10:48:11.901Z,1011.57
2022-08-02T10:49:38.750Z,1011.71
2022-08-02T10:50:12.962Z,1011.61
2022-08-02T10:51:11.851Z,1011.65
2022-08-02T10:52:12.209Z,1011.64
2022-08-02T10:53:11.845Z,1011.64
2022-08-02T10:54:11.825Z,1011.59
2022-08-02T10:55:14.737Z,1011.72
2022-08-02T10:56:11.794Z,1011.71
2022-08-02T10:57:15.087Z,1011.62
2022-08-02T10:58:11.784Z,1011.62
2022-08-02T10:59:11.778Z,1011.68
2022-08-02T11:00:11.755Z,1011.60
2022-08-02T11:01:12.772Z,1011.52
2022-08-02T11:02:12.020Z,1011.56
2022-08-02T11:03:11.720Z,1011.53
2022-08-02T11:04:11.727Z,1011.53
2022-08-02T11:05:11.712Z,1011.58
2022-08-02T11:06:25.250Z,1011.56
2022-08-02T11:07:12.694Z,1011.61
2022-08-02T11:08:11.672Z,1011.57
2022-08-02T11:09:11.686Z,1011.55
2022-08-02T11:10:11.662Z,1011.50
2022-08-02T11:11:11.641Z,1011.44
2022-08-02T11:12:11.880Z,1011.44
2022-08-02T11:13:11.622Z,1011.47
2022-08-02T11:14:11.632Z,1011.53
2022-08-02T11:15:11.600Z,1011.48
2022-08-02T11:16:12.199Z,1011.40
2022-08-02T11:17:11.587Z,1011.43
2022-08-02T11:18:11.578Z,1011.45
2022-08-02T11:19:11.575Z,1011.38
2022-08-02T11:20:11.562Z,1011.42
2022-08-02T11:21:11.546Z,1011.55
2022-08-02T11:22:11.762Z,1011.59
2022-08-02T11:23:11.524Z,1011.54
2022-08-02T11:24:11.530Z,1011.55
2022-08-02T11:25:11.495Z,1011.52
2022-08-02T11:26:11.617Z,1011.56
2022-08-02T11:27:11.636Z,1011.57
2022-08-02T11:28:11.466Z,1011.48
2022-08-02T11:29:15.982Z,1011.41
2022-08-02T11:30:11.449Z,1011.35
2022-08-02T11:31:11.441Z,1011.42
2022-08-02T11:32:11.732Z,1011.39
2022-08-02T11:33:11.414Z,1011.42
2022-08-02T11:34:11.425Z,1011.37
2022-08-02T11:35:12.401Z,1011.33
2022-08-02T11:36:11.398Z,1011.35
2022-08-02T11:37:11.373Z,1011.32
2022-08-02T11:38:11.375Z,1011.26
2022-08-02T11:39:11.379Z,1011.30
2022-08-02T11:40:18.969Z,1011.29
2022-08-02T11:41:12.329Z,1011.26
2022-08-02T11:42:11.819Z,1011.29
2022-08-02T11:43:11.317Z,1011.29
2022-08-02T11:44:11.312Z,1011.35
2022-08-02T11:45:11.297Z,1011.38
2022-08-02T11:46:12.285Z,1011.34
2022-08-02T11:47:11.267Z,1011.37
2022-08-02T11:48:11.258Z,1011.37
2022-08-02T11:49:11.318Z,1011.34
2022-08-02T11:50:11.247Z,1011.33
2022-08-02T11:51:11.242Z,1011.31
2022-08-02T11:52:11.758Z,1011.36
2022-08-02T11:53:11.212Z,1011.31
2022-08-02T11:54:11.208Z,1011.31
2022-08-02T11:55:11.183Z,1011.35
2022-08-02T11:56:11.183Z,1011.30
2022-08-02T11:57:14.321Z,1011.33
2022-08-02T11:58:12.169Z,1011.32
2022-08-02T11:59:14.392Z,1011.31
2022-08-02T12:00:11.131Z,1011.33
2022-08-02T12:01:11.121Z,1011.29
2022-08-02T12:02:11.466Z,1011.20
2022-08-02T12:03:11.340Z,1011.19
2022-08-02T12:04:11.118Z,1011.32
2022-08-02T12:05:11.086Z,1011.19